Anchor Point, Alaska
Current Conditions -  °F | °C
As of 4:53 AM on Thursday 27 Nov 2014 (Local Time) from PAHO Reporting Station
Clear Clear  
Wind Chill: 23°   Ceiling: Unl
Heat Index: 29°   Visibility: 10mi
Dew Point: 20°   Wind: 6mph
Humidity: 69%   Direction: 80°E
Pressure: 30.21"   Gusts: NA
Location:  59.77°N, 151.82°W
Report Text: PAHO 271353Z AUTO 08005KT 10SM CLR M02/M07 A3021 RMK AO2 SLP231 T10171067 TSNO
Loading
Personal Weather Stations






























Interactive Weather Map New forecast layout! Learn more

10-Day Weather Forecast

Advertisements
Track Severe Weather on mobile